Interlochen, Michigan
Current Conditions -  °F | °C
As of 6:53 PM on Saturday 25 Oct 2014 (Local Time) from KTVC Reporting Station
Clear Clear  
Wind Chill: 55°   Ceiling: Unl
Heat Index: 55°   Visibility: 10mi
Dew Point: 33°   Wind: 9mph
Humidity: 43%   Direction: 270°W
Pressure: 29.75"   Gusts: NA
Location:  44.64°N, 85.77°W
Report Text: KTVC 252253Z 27008KT 10SM CLR 13/01 A2975 RMK AO2 SLP075 T01280006
Loading
Personal Weather Stations






























Interactive Weather Map
Tropical Storm Tracking
New forecast layout! Learn more

10-Day Weather Forecast

Advertisements
Track Severe Weather on mobile